Time;durP1;ratioP1;P1;durP2;ratioP2;P2;SDS_P1;SDS_P2;PMS_P1;PMS_P2;Temp;Humidity;BMP_temperature;BMP_pressure;BME280_temperature;BME280_humidity;BME280_pressure;Samples;Min_cycle;Max_cycle;Signal;HPM_P1;HPM_P2
2022/08/07 00:00:45;;;;;;;;;;;;;;;-145.18;100.00;46652.59;5013189;28;20382;-71
2022/08/07 00:03:10;;;;;;;;;;;;;;;-145.18;100.00;46652.59;5012482;28;19917;-71
2022/08/07 00:05:36;;;;;;;;;;;;;;;-145.18;100.00;46646.72;5013060;28;19959;-70
2022/08/07 00:08:02;;;;;;;;;;;;;;;-145.18;100.00;46650.63;5012921;28;19923;-70
2022/08/07 00:10:28;;;;;;;;;;;;;;;-145.18;100.00;46646.72;5013024;28;20456;-71
2022/08/07 00:12:53;;;;;;;;;;;;;;;-145.18;100.00;46646.72;5012453;28;19991;-70
2022/08/07 00:15:19;;;;;;;;;;;;;;;-145.18;100.00;46644.78;5012826;28;20508;-70
2022/08/07 00:17:44;;;;;;;;;;;;;;;-145.18;100.00;46644.78;5012191;28;20033;-70
2022/08/07 00:20:09;;;;;;;;;;;;;;;-145.18;100.00;46644.78;5012400;28;19913;-70
2022/08/07 00:22:34;;;;;;;;;;;;;;;-145.18;100.00;46646.72;5011902;28;19928;-70
2022/08/07 00:25:00;;;;;;;;;;;;;;;-145.18;100.00;46642.81;5012667;28;20434;-70
2022/08/07 00:27:25;;;;;;;;;;;;;;;-145.18;100.00;46640.88;5012187;28;19921;-70
2022/08/07 00:29:51;;;;;;;;;;;;;;;-145.18;100.00;46636.94;5012432;28;19963;-70
2022/08/07 00:32:16;;;;;;;;;;;;;;;-145.18;100.00;46638.91;5012125;28;19964;-71
2022/08/07 00:34:41;;;;;;;;;;;;;;;-145.18;100.00;46644.78;5011986;28;20386;-71
2022/08/07 00:37:07;;;;;;;;;;;;;;;-145.18;100.00;46676.03;5012167;28;19917;-71
2022/08/07 00:39:33;;;;;;;;;;;;;;;-145.18;100.00;46640.88;5012462;28;19913;-71
2022/08/07 00:41:58;;;;;;;;;;;;;;;-145.18;100.00;46640.88;5011880;28;20337;-71
2022/08/07 00:44:24;;;;;;;;;;;;;;;-145.18;100.00;46660.41;5012255;28;19924;-70
2022/08/07 00:46:49;;;;;;;;;;;;;;;-145.18;100.00;46638.91;5011700;28;19924;-71
2022/08/07 00:49:15;;;;;;;;;;;;;;;-145.18;100.00;46636.94;5012412;28;19971;-71
2022/08/07 00:51:41;;;;;;;;;;;;;;;-145.18;100.00;46638.91;5011631;28;19924;-72
2022/08/07 00:54:06;;;;;;;;;;;;;;;-145.18;100.00;46638.91;5012289;28;19913;-71
2022/08/07 00:56:32;;;;;;;;;;;;;;;-145.18;100.00;46638.91;5011586;28;19928;-71
2022/08/07 00:58:58;;;;;;;;;;;;;;;-145.18;100.00;46640.88;5012081;28;19917;-70
2022/08/07 01:01:23;;;;;;;;;;;;;;;-145.18;100.00;46640.88;5011482;28;20377;-71
2022/08/07 01:03:50;;;;;;;;;;;;;;;-145.18;100.00;46640.88;5012010;28;20007;-70
2022/08/07 01:06:16;;;;;;;;;;;;;;;-145.18;100.00;46638.91;5011748;28;20357;-70
2022/08/07 01:08:41;;;;;;;;;;;;;;;-145.18;100.00;46646.72;5011833;28;19927;-70
2022/08/07 01:11:06;;;;;;;;;;;;;;;-145.18;100.00;46640.88;5011570;28;19952;-70
2022/08/07 01:13:32;;;;;;;;;;;;;;;-145.18;100.00;46640.88;5011808;28;19945;-70
2022/08/07 01:15:58;;;;;;;;;;;;;;;-145.18;100.00;46640.88;5011527;28;20004;-71
2022/08/07 01:18:23;;;;;;;;;;;;;;;-145.18;100.00;46638.91;5011415;28;19917;-70
2022/08/07 01:20:51;;;;;;;;;;;;;;;-145.18;100.00;46642.81;5011398;28;19913;-70
2022/08/07 01:23:18;;;;;;;;;;;;;;;-145.18;100.00;46638.91;5011238;28;19965;-70
2022/08/07 01:25:43;;;;;;;;;;;;;;;-145.18;100.00;46640.88;5011499;28;19913;-71
2022/08/07 01:28:08;;;;;;;;;;;;;;;-145.18;100.00;46638.91;5011049;28;20370;-70
2022/08/07 01:30:35;;;;;;;;;;;;;;;-145.18;100.00;46644.78;5011755;28;20397;-70
2022/08/07 01:33:01;;;;;;;;;;;;;;;-145.18;100.00;46638.91;5010531;28;19960;-71
2022/08/07 01:35:26;;;;;;;;;;;;;;;-145.18;100.00;46642.81;5011459;28;20020;-70
2022/08/07 01:37:51;;;;;;;;;;;;;;;-145.18;100.00;46638.91;5010751;28;20388;-70
2022/08/07 01:40:18;;;;;;;;;;;;;;;-145.18;100.00;46638.91;5011566;28;19922;-70
2022/08/07 01:42:43;;;;;;;;;;;;;;;-145.18;100.00;46636.94;5010805;28;19920;-70
2022/08/07 01:45:09;;;;;;;;;;;;;;;-145.18;100.00;46677.97;5011163;28;20502;-69
2022/08/07 01:47:35;;;;;;;;;;;;;;;-145.18;100.00;46638.91;5010950;28;19972;-70
2022/08/07 01:50:00;;;;;;;;;;;;;;;-145.18;100.00;46660.41;5011232;28;20370;-70
2022/08/07 01:52:28;;;;;;;;;;;;;;;-145.18;100.00;46676.03;5010793;28;20004;-70
2022/08/07 01:54:55;;;;;;;;;;;;;;;-145.18;100.00;46660.41;5010894;28;19920;-70
2022/08/07 01:57:22;;;;;;;;;;;;;;;-145.18;100.00;46660.41;5010949;28;19918;-70
2022/08/07 01:59:56;;;;;;;;;;;;;;;-145.18;100.00;46660.41;5010818;28;20354;-70
2022/08/07 02:02:41;;;;;;;;;;;;;;;-145.18;100.00;46660.41;5422023;23;19960;-69
2022/08/07 02:05:12;;;;;;;;;;;;;;;-145.18;100.00;46660.41;4984317;28;19977;-68
2022/08/07 02:07:39;;;;;;;;;;;;;;;-145.18;100.00;46660.41;4971928;28;20350;-68
2022/08/07 02:10:07;;;;;;;;;;;;;;;-145.18;100.00;46660.41;4972159;28;19953;-69
2022/08/07 02:12:34;;;;;;;;;;;;;;;-145.18;100.00;46660.41;4971410;28;19914;-69
2022/08/07 02:15:01;;;;;;;;;;;;;;;-145.18;100.00;46660.41;4971929;28;19929;-69
2022/08/07 02:17:26;;;;;;;;;;;;;;;-145.18;100.00;46660.41;4971880;28;19918;-69
2022/08/07 02:19:53;;;;;;;;;;;;;;;-145.18;100.00;46660.41;4971984;28;20341;-69
2022/08/07 02:22:19;;;;;;;;;;;;;;;-145.18;100.00;46660.41;4971488;28;19956;-69
2022/08/07 02:24:45;;;;;;;;;;;;;;;-145.18;100.00;46660.41;4971964;28;20362;-69
2022/08/07 02:27:14;;;;;;;;;;;;;;;-145.18;100.00;46660.41;4971364;28;19981;-69
2022/08/07 02:29:40;;;;;;;;;;;;;;;-145.18;100.00;46660.41;4972025;28;19913;-69
2022/08/07 02:32:07;;;;;;;;;;;;;;;-145.18;100.00;46660.41;4971786;28;20822;-70
2022/08/07 02:34:33;;;;;;;;;;;;;;;-145.18;100.00;46660.41;4972070;28;19921;-69
2022/08/07 02:37:00;;;;;;;;;;;;;;;-145.18;100.00;46660.41;4971330;28;19937;-70
2022/08/07 02:39:27;;;;;;;;;;;;;;;-145.18;100.00;46660.41;4971810;28;19937;-70
2022/08/07 02:41:53;;;;;;;;;;;;;;;-145.18;100.00;46660.41;4971530;28;19918;-69
2022/08/07 02:44:19;;;;;;;;;;;;;;;-145.18;100.00;46660.41;4972789;28;19929;-69
2022/08/07 02:46:49;;;;;;;;;;;;;;;-145.18;100.00;46660.41;4975844;28;19914;-69
2022/08/07 02:49:14;;;;;;;;;;;;;;;-145.18;100.00;46660.41;4975111;28;19922;-69
2022/08/07 02:51:42;;;;;;;;;;;;;;;-145.18;100.00;46660.41;4975498;28;20430;-68
2022/08/07 02:54:08;;;;;;;;;;;;;;;-145.18;100.00;46660.41;4975023;28;19914;-69
2022/08/07 02:56:36;;;;;;;;;;;;;;;-145.18;100.00;46660.41;4975366;28;19918;-69
2022/08/07 02:59:03;;;;;;;;;;;;;;;-145.18;100.00;46660.41;4974848;28;19973;-69
2022/08/07 03:01:29;;;;;;;;;;;;;;;-145.18;100.00;46676.03;4975281;28;19910;-69
2022/08/07 03:03:56;;;;;;;;;;;;;;;-145.18;100.00;46638.91;4974981;28;20004;-69
2022/08/07 03:06:22;;;;;;;;;;;;;;;-145.18;100.00;46660.41;4974849;28;19925;-69
2022/08/07 03:08:48;;;;;;;;;;;;;;;-145.18;100.00;46660.41;4975007;28;19914;-69
2022/08/07 03:11:13;;;;;;;;;;;;;;;-145.18;100.00;46660.41;4975172;28;20357;-69
2022/08/07 03:13:39;;;;;;;;;;;;;;;-145.18;100.00;46676.03;4974676;28;19918;-70
2022/08/07 03:16:04;;;;;;;;;;;;;;;-145.18;100.00;46660.41;4974930;28;20294;-70
2022/08/07 03:18:30;;;;;;;;;;;;;;;-145.18;100.00;46636.94;4974759;28;19968;-69
2022/08/07 03:20:55;;;;;;;;;;;;;;;-145.18;100.00;46660.41;4975372;28;20407;-69
2022/08/07 03:23:21;;;;;;;;;;;;;;;-145.18;100.00;46660.41;4974331;28;19922;-70
2022/08/07 03:25:47;;;;;;;;;;;;;;;-145.18;100.00;46660.41;4974804;28;19930;-69
2022/08/07 03:28:15;;;;;;;;;;;;;;;-145.18;100.00;46660.41;4974474;28;19918;-69
2022/08/07 03:30:41;;;;;;;;;;;;;;;-145.18;100.00;46660.41;4974892;28;19914;-69
2022/08/07 03:33:07;;;;;;;;;;;;;;;-145.18;100.00;46660.41;4974200;28;19920;-70
2022/08/07 03:35:34;;;;;;;;;;;;;;;-145.18;100.00;46660.41;4974467;28;19925;-69
2022/08/07 03:38:02;;;;;;;;;;;;;;;-145.18;100.00;46660.41;4974272;28;20020;-69
2022/08/07 03:40:28;;;;;;;;;;;;;;;-145.18;100.00;46660.41;4974650;28;20294;-69
2022/08/07 03:42:53;;;;;;;;;;;;;;;-145.18;100.00;46660.41;4974272;28;19925;-69
2022/08/07 03:45:20;;;;;;;;;;;;;;;-145.18;100.00;46660.41;4974408;28;19962;-69
2022/08/07 03:47:45;;;;;;;;;;;;;;;-145.18;100.00;46660.41;4973765;28;19913;-70
2022/08/07 03:50:11;;;;;;;;;;;;;;;-145.18;100.00;46660.41;4974260;28;20390;-69
2022/08/07 03:52:36;;;;;;;;;;;;;;;-145.18;100.00;46660.41;4973847;28;20297;-69
2022/08/07 03:55:02;;;;;;;;;;;;;;;-145.18;100.00;46660.41;4973368;28;19922;-69
2022/08/07 03:57:28;;;;;;;;;;;;;;;-145.18;100.00;46660.41;4973046;28;20297;-69
2022/08/07 03:59:54;;;;;;;;;;;;;;;-145.18;100.00;46660.41;4974100;28;19997;-69
2022/08/07 04:02:20;;;;;;;;;;;;;;;-145.18;100.00;46660.41;4973063;28;20000;-70
2022/08/07 04:04:45;;;;;;;;;;;;;;;-145.18;100.00;46660.41;4974193;28;20378;-69
2022/08/07 04:07:11;;;;;;;;;;;;;;;-145.18;100.00;46660.41;4955980;28;19928;-69
2022/08/07 04:09:37;;;;;;;;;;;;;;;-145.18;100.00;46660.41;4973648;28;19922;-69
2022/08/07 04:12:04;;;;;;;;;;;;;;;-145.18;100.00;46660.41;4973547;28;20303;-69
2022/08/07 04:14:29;;;;;;;;;;;;;;;-145.18;100.00;46660.41;4973486;28;20242;-69
2022/08/07 04:16:55;;;;;;;;;;;;;;;-145.18;100.00;46660.41;4973547;28;19918;-70
2022/08/07 04:19:20;;;;;;;;;;;;;;;-145.18;100.00;46660.41;4973055;28;19926;-69
2022/08/07 04:21:45;;;;;;;;;;;;;;;-145.18;100.00;46660.41;4973722;28;19937;-69
2022/08/07 04:24:11;;;;;;;;;;;;;;;-145.18;100.00;46660.41;4972783;28;19921;-69
2022/08/07 04:26:40;;;;;;;;;;;;;;;-145.18;100.00;46660.41;4973209;28;19998;-69
2022/08/07 04:29:05;;;;;;;;;;;;;;;-145.18;100.00;46660.41;4973256;28;19913;-70
2022/08/07 04:31:31;;;;;;;;;;;;;;;-145.18;100.00;46660.41;4973647;28;19925;-69
2022/08/07 04:33:57;;;;;;;;;;;;;;;-145.18;100.00;46660.41;4973069;28;19918;-69
2022/08/07 04:36:22;;;;;;;;;;;;;;;-145.18;100.00;46660.41;4973015;28;19918;-70
2022/08/07 04:38:47;;;;;;;;;;;;;;;-145.18;100.00;46660.41;4972854;28;20005;-69
2022/08/07 04:41:13;;;;;;;;;;;;;;;-145.18;100.00;46660.41;4973028;28;19960;-69
2022/08/07 04:43:40;;;;;;;;;;;;;;;-145.18;100.00;46635.00;4972864;28;20374;-69
2022/08/07 04:46:14;;;;;;;;;;;;;;;-145.18;100.00;46631.09;4972917;28;19954;-69
2022/08/07 04:48:42;;;;;;;;;;;;;;;-145.18;100.00;46633.06;4982337;28;19961;-70
2022/08/07 04:51:11;;;;;;;;;;;;;;;-145.18;100.00;46660.41;4991914;28;19913;-69
2022/08/07 04:53:41;;;;;;;;;;;;;;;-145.18;100.00;46660.41;4991664;28;19965;-70
2022/08/07 04:56:16;;;;;;;;;;;;;;;-145.18;100.00;46635.00;4989313;28;19913;-71
2022/08/07 04:58:59;;;;;;;;;;;;;;;-145.18;100.00;46660.41;4991622;28;20425;-71
2022/08/07 05:01:27;;;;;;;;;;;;;;;-145.18;100.00;46660.41;4992287;28;19917;-71
2022/08/07 05:04:06;;;;;;;;;;;;;;;-145.18;100.00;46660.41;4991455;28;20370;-68
2022/08/07 05:06:35;;;;;;;;;;;;;;;-145.18;100.00;46631.09;4992352;28;19922;-71
2022/08/07 05:09:02;;;;;;;;;;;;;;;-145.18;100.00;46660.41;4985527;28;20461;-72
2022/08/07 05:11:30;;;;;;;;;;;;;;;-145.18;100.00;46629.13;4981711;28;19971;-71
2022/08/07 05:14:08;;;;;;;;;;;;;;;-145.18;100.00;46660.41;4979798;28;19914;-72
2022/08/07 05:16:34;;;;;;;;;;;;;;;-145.18;100.00;46660.41;4973023;28;19965;-71
2022/08/07 05:19:02;;;;;;;;;;;;;;;-145.18;100.00;46629.13;4972321;28;19970;-72
2022/08/07 05:21:29;;;;;;;;;;;;;;;-145.18;100.00;46629.13;4975396;28;19918;-71
2022/08/07 05:23:57;;;;;;;;;;;;;;;-145.18;100.00;46625.22;4990983;28;19922;-71
2022/08/07 05:26:23;;;;;;;;;;;;;;;-145.18;100.00;46629.13;4991906;28;19918;-71
2022/08/07 05:28:50;;;;;;;;;;;;;;;-145.18;100.00;46625.22;4991591;28;19952;-72
2022/08/07 05:31:17;;;;;;;;;;;;;;;-145.18;100.00;46623.28;4991724;28;19956;-72
2022/08/07 05:33:43;;;;;;;;;;;;;;;-145.18;100.00;46633.06;4991490;28;19910;-73
2022/08/07 05:36:09;;;;;;;;;;;;;;;-145.18;100.00;46627.19;4991667;28;20458;-72
2022/08/07 05:38:35;;;;;;;;;;;;;;;-145.18;100.00;46631.09;4991475;28;19928;-72
2022/08/07 05:41:00;;;;;;;;;;;;;;;-145.18;100.00;46625.22;4991763;28;19913;-71
2022/08/07 05:43:26;;;;;;;;;;;;;;;-145.18;100.00;46631.09;4973972;28;20398;-72
2022/08/07 05:45:51;;;;;;;;;;;;;;;-145.18;100.00;46631.09;4991904;28;19928;-72
2022/08/07 05:48:18;;;;;;;;;;;;;;;-145.18;100.00;46631.09;4991069;28;19917;-71
2022/08/07 05:50:43;;;;;;;;;;;;;;;-145.18;100.00;46633.06;4992011;28;20045;-71
2022/08/07 05:53:09;;;;;;;;;;;;;;;-145.18;100.00;46633.06;4990645;28;19952;-71
2022/08/07 05:55:35;;;;;;;;;;;;;;;-145.18;100.00;46631.09;4990541;28;20008;-71
2022/08/07 05:58:01;;;;;;;;;;;;;;;-145.18;100.00;46629.13;4990833;28;19921;-72
2022/08/07 06:00:29;;;;;;;;;;;;;;;-145.18;100.00;46631.09;4990757;28;19922;-71
2022/08/07 06:02:54;;;;;;;;;;;;;;;-145.18;100.00;46635.00;4989548;28;19924;-72
2022/08/07 06:05:21;;;;;;;;;;;;;;;-145.18;100.00;46638.91;4990892;28;19925;-72
2022/08/07 06:07:48;;;;;;;;;;;;;;;-145.18;100.00;46636.94;4991224;28;19921;-72
2022/08/07 06:10:13;;;;;;;;;;;;;;;-145.18;100.00;46636.94;4991506;28;19918;-71
2022/08/07 06:12:39;;;;;;;;;;;;;;;-145.18;100.00;46638.91;4980270;28;20333;-72
2022/08/07 06:15:05;;;;;;;;;;;;;;;-145.18;100.00;46646.72;4987816;28;20362;-72
2022/08/07 06:17:31;;;;;;;;;;;;;;;-145.18;100.00;46650.63;4991451;28;20370;-72
2022/08/07 06:19:57;;;;;;;;;;;;;;;-145.18;100.00;46656.50;4993335;28;19924;-72
2022/08/07 06:22:23;;;;;;;;;;;;;;;-145.18;100.00;46646.72;4994769;28;19929;-72
2022/08/07 06:24:48;;;;;;;;;;;;;;;-145.18;100.00;46654.53;4994746;28;19920;-71
2022/08/07 06:27:20;;;;;;;;;;;;;;;-145.18;100.00;46654.53;4994828;28;19918;-72
2022/08/07 06:29:46;;;;;;;;;;;;;;;-145.18;100.00;46652.59;4994788;28;20449;-72
2022/08/07 06:32:11;;;;;;;;;;;;;;;-145.18;100.00;46662.34;4994647;28;20013;-72
2022/08/07 06:34:36;;;;;;;;;;;;;;;-145.18;100.00;46660.41;4994407;28;19921;-72
2022/08/07 06:37:02;;;;;;;;;;;;;;;-145.18;100.00;46654.53;4994675;28;19913;-72
2022/08/07 06:39:27;;;;;;;;;;;;;;;-145.18;100.00;46658.44;4994512;28;19918;-72
2022/08/07 06:42:00;;;;;;;;;;;;;;;-145.18;100.00;46658.44;4994872;28;19961;-72
2022/08/07 06:44:26;;;;;;;;;;;;;;;-145.18;100.00;46654.53;4992317;28;20417;-72
2022/08/07 06:46:51;;;;;;;;;;;;;;;-145.18;100.00;46656.50;4994758;28;19967;-72
2022/08/07 06:49:16;;;;;;;;;;;;;;;-145.18;100.00;46650.63;4993917;28;19945;-72
2022/08/07 06:51:42;;;;;;;;;;;;;;;-145.18;100.00;46638.91;4994786;28;19918;-72
2022/08/07 06:54:09;;;;;;;;;;;;;;;-145.18;100.00;46629.13;4994533;28;19914;-72
2022/08/07 06:56:46;;;;;;;;;;;;;;;-145.18;100.00;46623.28;4994688;28;20309;-72
2022/08/07 06:59:16;;;;;;;;;;;;;;;-145.18;100.00;46617.41;4994576;28;19921;-72
2022/08/07 07:01:41;;;;;;;;;;;;;;;-145.18;100.00;46580.31;4994028;28;20294;-72
2022/08/07 07:04:07;;;;;;;;;;;;;;;-145.18;100.00;46547.09;4993620;28;19918;-72
2022/08/07 07:06:33;;;;;;;;;;;;;;;-145.18;100.00;46533.44;4994256;28;19918;-72
2022/08/07 07:09:16;;;;;;;;;;;;;;;-145.18;100.00;46527.56;4994341;28;19968;-72
2022/08/07 07:11:44;;;;;;;;;;;;;;;-145.18;100.00;46531.47;4994446;28;19917;-72
2022/08/07 07:14:10;;;;;;;;;;;;;;;-145.18;100.00;46531.47;4993650;28;19920;-72
2022/08/07 07:16:37;;;;;;;;;;;;;;;-145.18;100.00;46527.56;4993606;28;20389;-72
2022/08/07 07:19:05;;;;;;;;;;;;;;;-145.18;100.00;46531.47;4983577;28;20334;-72
2022/08/07 07:21:34;;;;;;;;;;;;;;;-145.18;100.00;46535.38;4982368;28;19918;-72
2022/08/07 07:24:00;;;;;;;;;;;;;;;-145.18;100.00;46531.47;4982501;28;19918;-72
2022/08/07 07:26:29;;;;;;;;;;;;;;;-145.18;100.00;46535.38;4982899;28;20412;-72
2022/08/07 07:29:04;;;;;;;;;;;;;;;-145.18;100.00;46539.28;4984113;28;19969;-72
2022/08/07 07:31:34;;;;;;;;;;;;;;;-145.18;100.00;46533.44;4989904;28;19914;-72
2022/08/07 07:34:05;;;;;;;;;;;;;;;-145.18;100.00;46537.34;4993547;28;19969;-72
2022/08/07 07:36:32;;;;;;;;;;;;;;;-145.18;100.00;46535.38;4993816;28;19914;-72
2022/08/07 07:38:59;;;;;;;;;;;;;;;-145.18;100.00;46539.28;4992248;28;20032;-72
2022/08/07 07:41:25;;;;;;;;;;;;;;;-145.18;100.00;46539.28;4992988;28;20109;-72
2022/08/07 07:43:52;;;;;;;;;;;;;;;-145.18;100.00;46535.38;4993489;28;19921;-72
2022/08/07 07:46:18;;;;;;;;;;;;;;;-145.18;100.00;46539.28;4993957;28;19917;-72
2022/08/07 07:48:45;;;;;;;;;;;;;;;-145.18;100.00;46547.09;4993449;28;20007;-72
2022/08/07 07:51:11;;;;;;;;;;;;;;;-145.18;100.00;46537.34;4993386;28;19920;-73
2022/08/07 07:53:38;;;;;;;;;;;;;;;-145.18;100.00;46545.16;4993334;28;20439;-72
2022/08/07 07:56:05;;;;;;;;;;;;;;;-145.18;100.00;46541.25;4993676;28;19914;-72
2022/08/07 07:58:32;;;;;;;;;;;;;;;-145.18;100.00;46547.09;4993154;28;19914;-72
2022/08/07 08:00:59;;;;;;;;;;;;;;;-145.18;100.00;46547.09;4993548;28;20007;-72
2022/08/07 08:03:25;;;;;;;;;;;;;;;-145.18;100.00;46545.16;4992820;28;19924;-72
2022/08/07 08:05:51;;;;;;;;;;;;;;;-145.18;100.00;46552.97;4993587;28;19921;-72
2022/08/07 08:08:16;;;;;;;;;;;;;;;-145.18;100.00;46558.81;4992847;28;20298;-72
2022/08/07 08:10:42;;;;;;;;;;;;;;;-145.18;100.00;46552.97;4993509;28;19917;-73
2022/08/07 08:13:08;;;;;;;;;;;;;;;-145.18;100.00;46556.88;4992623;28;19918;-72
2022/08/07 08:15:35;;;;;;;;;;;;;;;-145.18;100.00;46545.16;4992824;28;19928;-72
2022/08/07 08:18:02;;;;;;;;;;;;;;;-145.18;100.00;46545.16;4993063;28;20302;-72
2022/08/07 08:20:30;;;;;;;;;;;;;;;-145.18;100.00;46547.09;4992905;28;20309;-73
2022/08/07 08:28:27;;;;;;;;;;;;;;;-145.18;100.00;46570.53;4992824;28;19964;-72
2022/08/07 08:30:56;;;;;;;;;;;;;;;-145.18;100.00;46560.78;4992960;28;19922;-72
2022/08/07 08:33:23;;;;;;;;;;;;;;;-145.18;100.00;46560.78;4992378;28;20449;-70
2022/08/07 08:35:50;;;;;;;;;;;;;;;-145.18;100.00;46576.41;4992963;28;19914;-73
2022/08/07 08:38:17;;;;;;;;;;;;;;;-145.18;100.00;46578.34;4992232;28;19953;-73
2022/08/07 08:41:03;;;;;;;;;;;;;;;-145.18;100.00;46554.91;4992942;28;20403;-73
2022/08/07 08:43:29;;;;;;;;;;;;;;;-145.18;100.00;46593.97;4991854;28;19913;-70
2022/08/07 08:46:17;;;;;;;;;;;;;;;-145.18;100.00;46613.50;4992892;28;19925;-70
2022/08/07 08:48:45;;;;;;;;;;;;;;;-145.18;100.00;46586.16;4992236;28;20005;-73
2022/08/07 08:51:22;;;;;;;;;;;;;;;-145.18;100.00;46613.50;4992706;28;19920;-71
2022/08/07 08:53:56;;;;;;;;;;;;;;;-145.18;100.00;46597.88;4992194;28;19910;-70
2022/08/07 08:56:31;;;;;;;;;;;;;;;-145.18;100.00;46638.91;4992274;28;20298;-70
2022/08/07 08:58:59;;;;;;;;;;;;;;;-145.18;100.00;46590.06;4992349;28;20508;-71
2022/08/07 09:01:41;;;;;;;;;;;;;;;-145.18;100.00;46609.59;4992265;28;20004;-71
2022/08/07 09:04:06;;;;;;;;;;;;;;;-145.18;100.00;46607.66;4991758;28;19924;-71
2022/08/07 09:06:37;;;;;;;;;;;;;;;-145.18;100.00;47164.38;4991861;28;19922;-71
2022/08/07 09:09:08;;;;;;;;;;;;;;;-145.18;100.00;47187.84;4992013;28;20406;-71
2022/08/07 09:11:38;;;;;;;;;;;;;;;-145.18;100.00;47148.75;4992286;28;19917;-71
2022/08/07 09:14:19;;;;;;;;;;;;;;;-145.18;100.00;47144.84;4991894;28;20274;-71
2022/08/07 09:16:58;;;;;;;;;;;;;;;-145.18;100.00;47183.94;4991679;28;19913;-71
2022/08/07 09:19:29;;;;;;;;;;;;;;;-145.18;100.00;47180.03;4991788;28;19960;-71
2022/08/07 09:22:03;;;;;;;;;;;;;;;-145.18;100.00;47080.38;4992128;28;19914;-70
2022/08/07 09:24:37;;;;;;;;;;;;;;;-145.18;100.00;47070.63;4991497;28;19913;-71
2022/08/07 09:27:22;;;;;;;;;;;;;;;-145.18;100.00;47078.44;4991997;28;19914;-71
2022/08/07 09:29:47;;;;;;;;;;;;;;;-145.18;100.00;47090.16;4991063;28;19953;-70
2022/08/07 09:32:20;;;;;;;;;;;;;;;-145.18;100.00;47092.09;4991606;28;19952;-71
2022/08/07 09:34:48;;;;;;;;;;;;;;;-145.18;100.00;47097.97;4991682;28;20397;-71
2022/08/07 09:37:19;;;;;;;;;;;;;;;-145.18;100.00;47096.00;4991422;28;19914;-72
2022/08/07 09:40:11;;;;;;;;;;;;;;;-145.18;100.00;47109.69;4991354;28;19914;-72
2022/08/07 09:42:36;;;;;;;;;;;;;;;-145.18;100.00;47113.59;4987825;28;19955;-71
2022/08/07 09:45:17;;;;;;;;;;;;;;;-145.18;100.00;47105.78;4991416;28;19945;-71
2022/08/07 09:47:45;;;;;;;;;;;;;;;-145.18;100.00;47125.31;4991783;28;19953;-72
2022/08/07 09:50:28;;;;;;;;;;;;;;;-145.18;100.00;47131.19;4991087;28;19914;-72
2022/08/07 09:52:59;;;;;;;;;;;;;;;-145.18;100.00;47076.47;4990756;28;20285;-72
2022/08/07 09:55:43;;;;;;;;;;;;;;;-145.18;100.00;47058.91;4990485;28;19914;-71
2022/08/07 09:58:17;;;;;;;;;;;;;;;-145.18;100.00;47070.63;4991521;28;19978;-70
2022/08/07 10:00:49;;;;;;;;;;;;;;;-145.18;100.00;47066.72;4991213;28;20271;-70
2022/08/07 10:03:34;;;;;;;;;;;;;;;-145.18;100.00;47056.94;4990964;28;20290;-71
2022/08/07 10:06:02;;;;;;;;;;;;;;;-145.18;100.00;47029.59;4991236;28;19918;-70
2022/08/07 10:08:46;;;;;;;;;;;;;;;-145.18;100.00;47043.28;4990462;28;19914;-72
2022/08/07 10:11:20;;;;;;;;;;;;;;;-145.18;100.00;47078.44;4990097;28;19916;-72
2022/08/07 10:13:49;;;;;;;;;;;;;;;-145.18;100.00;47066.72;4989497;28;20434;-70
2022/08/07 10:16:33;;;;;;;;;;;;;;;-145.18;100.00;47072.56;4991028;28;19921;-71
2022/08/07 10:19:06;;;;;;;;;;;;;;;-145.18;100.00;47066.72;4991090;28;20303;-72
2022/08/07 10:21:40;;;;;;;;;;;;;;;-145.18;100.00;47066.72;4985166;28;19924;-72
2022/08/07 10:24:32;;;;;;;;;;;;;;;-145.18;100.00;47070.63;4974351;28;19914;-72
2022/08/07 10:27:24;;;;;;;;;;;;;;;-145.18;100.00;47070.63;4948619;28;20263;-72
2022/08/07 10:30:03;;;;;;;;;;;;;;;-145.18;100.00;47072.56;4971675;28;20000;-72
2022/08/07 10:32:45;;;;;;;;;;;;;;;-145.18;100.00;47109.69;4971587;28;19921;-72
2022/08/07 10:35:23;;;;;;;;;;;;;;;-145.18;100.00;47060.84;4971862;28;20322;-70
2022/08/07 10:37:51;;;;;;;;;;;;;;;-145.18;100.00;47078.44;4971225;28;19937;-72
2022/08/07 10:40:20;;;;;;;;;;;;;;;-145.18;100.00;47066.72;4974127;28;20486;-72
2022/08/07 10:42:54;;;;;;;;;;;;;;;-145.18;100.00;47055.00;4990137;28;19925;-72
2022/08/07 10:45:36;;;;;;;;;;;;;;;-145.18;100.00;47055.00;4990750;28;19952;-72
2022/08/07 10:48:20;;;;;;;;;;;;;;;-145.18;100.00;47058.91;4988298;28;19973;-72
2022/08/07 10:50:49;;;;;;;;;;;;;;;-145.18;100.00;47047.19;4988831;28;19921;-72
2022/08/07 10:53:20;;;;;;;;;;;;;;;-145.18;100.00;47056.94;4988996;28;19953;-72
2022/08/07 10:55:50;;;;;;;;;;;;;;;-145.18;100.00;47062.81;4989709;28;19914;-73
2022/08/07 10:58:34;;;;;;;;;;;;;;;-145.18;100.00;47058.91;4991311;28;19917;-72
2022/08/07 11:01:18;;;;;;;;;;;;;;;-145.18;100.00;47058.91;4990122;28;20378;-72
2022/08/07 11:04:02;;;;;;;;;;;;;;;-145.18;100.00;47047.19;4990561;28;19917;-73
2022/08/07 11:06:30;;;;;;;;;;;;;;;-145.18;100.00;47033.50;4993466;28;19964;-72
2022/08/07 11:09:06;;;;;;;;;;;;;;;-145.18;100.00;47015.91;4994623;28;19917;-71
2022/08/07 11:11:38;;;;;;;;;;;;;;;-145.18;100.00;47004.19;4994120;28;19917;-71
2022/08/07 11:14:12;;;;;;;;;;;;;;;-145.18;100.00;47023.72;4994074;28;19917;-70
2022/08/07 11:16:41;;;;;;;;;;;;;;;-145.18;100.00;47015.91;4994189;28;20371;-71
2022/08/07 11:19:28;;;;;;;;;;;;;;;-145.18;100.00;47002.25;4994069;28;20358;-70
2022/08/07 11:21:53;;;;;;;;;;;;;;;-145.18;100.00;46998.34;4994329;28;19917;-71
2022/08/07 11:24:26;;;;;;;;;;;;;;;-145.18;100.00;47000.28;4993923;28;19914;-71
2022/08/07 11:27:05;;;;;;;;;;;;;;;-145.18;100.00;47021.78;4976716;28;20340;-71
2022/08/07 11:29:31;;;;;;;;;;;;;;;-145.18;100.00;47015.91;4994022;28;19914;-71
2022/08/07 11:32:15;;;;;;;;;;;;;;;-145.18;100.00;47023.72;4993897;28;19924;-71
2022/08/07 11:34:49;;;;;;;;;;;;;;;-145.18;100.00;47023.72;4994133;28;19940;-73
2022/08/07 11:37:26;;;;;;;;;;;;;;;-145.18;100.00;47017.88;4976340;28;20302;-73
2022/08/07 11:40:10;;;;;;;;;;;;;;;-145.18;100.00;47012.00;4993867;28;19917;-72
2022/08/07 11:42:50;;;;;;;;;;;;;;;-145.18;100.00;47031.53;4993937;28;20020;-73
2022/08/07 11:45:15;;;;;;;;;;;;;;;-145.18;100.00;47012.00;4993256;28;20000;-73
2022/08/07 11:48:00;;;;;;;;;;;;;;;-145.18;100.00;47008.09;4993635;28;19980;-73
2022/08/07 11:50:40;;;;;;;;;;;;;;;-145.18;100.00;46996.38;4993290;28;20290;-73
2022/08/07 11:53:23;;;;;;;;;;;;;;;-145.18;100.00;47013.97;4993697;28;19914;-73
2022/08/07 11:55:49;;;;;;;;;;;;;;;-145.18;100.00;46990.53;4993417;28;19937;-73
2022/08/07 11:58:27;;;;;;;;;;;;;;;-145.18;100.00;46984.66;4994056;28;20453;-73
2022/08/07 12:01:08;;;;;;;;;;;;;;;-145.18;100.00;46988.56;4993059;28;20681;-73
2022/08/07 12:03:33;;;;;;;;;;;;;;;-145.18;100.00;46990.53;4993549;28;19922;-73
2022/08/07 12:06:23;;;;;;;;;;;;;;;-145.18;100.00;46980.75;4992887;28;19961;-73
2022/08/07 12:08:48;;;;;;;;;;;;;;;-145.18;99.69;46980.75;4993522;28;19969;-73
2022/08/07 12:11:26;;;;;;;;;;;;;;;-145.18;100.00;46992.47;4993218;28;19914;-73
2022/08/07 12:14:04;;;;;;;;;;;;;;;-145.18;100.00;46982.72;4993348;28;19914;-73
2022/08/07 12:16:40;;;;;;;;;;;;;;;-145.18;96.04;46957.31;4992021;28;19921;-71
2022/08/07 12:19:20;;;;;;;;;;;;;;;-145.18;95.09;46945.59;4993074;28;19918;-73
2022/08/07 12:21:51;;;;;;;;;;;;;;;-145.18;100.00;46924.09;4993181;28;19914;-73
2022/08/07 12:24:21;;;;;;;;;;;;;;;-145.18;99.27;46969.03;4992950;28;19914;-73
2022/08/07 12:26:52;;;;;;;;;;;;;;;-145.18;100.00;46990.53;4991920;28;19944;-72
2022/08/07 12:29:32;;;;;;;;;;;;;;;-145.18;100.00;47004.19;4991185;28;20007;-74
2022/08/07 12:32:02;;;;;;;;;;;;;;;-145.18;100.00;46990.53;4992556;28;19914;-72
2022/08/07 12:34:30;;;;;;;;;;;;;;;-145.18;100.00;47010.06;4992484;28;19914;-73